Time;durP1;ratioP1;P1;durP2;ratioP2;P2;SDS_P1;SDS_P2;PMS_P1;PMS_P2;Temp;Humidity;BMP_temperature;BMP_pressure;BME280_temperature;BME280_humidity;BME280_pressure;Samples;Min_cycle;Max_cycle;Signal;HPM_P1;HPM_P2
2022/06/22 00:02:00;;;;;;;;;;;;;;;;;;4997637;28;7170;-83
2022/06/22 00:04:36;;;;;;;;;;;;;;;;;;4998137;28;8468;-83
2022/06/22 00:07:11;;;;;;;;;;;;;;;;;;4998173;28;7183;-83
2022/06/22 00:09:41;;;;;;;;;;;;;;;;;;4997218;28;8546;-83
2022/06/22 00:12:17;;;;;;;;;;;;;;;;;;4997204;28;8547;-83
2022/06/22 00:14:48;;;;;;;;;;;;;;;;;;4998244;28;7044;-83
2022/06/22 00:17:26;;;;;;;;;;;;;;;;;;4997163;28;8320;-82
2022/06/22 00:20:10;;;;;;;;;;;;;;;;;;4998242;28;7268;-83
2022/06/22 00:22:46;;;;;;;;;;;;;;;;;;4997009;28;7270;-83
2022/06/22 00:25:18;;;;;;;;;;;;;;;;;;4997751;28;7133;-83
2022/06/22 00:27:44;;;;;;;;;;;;;;;;;;4998062;28;7047;-83
2022/06/22 00:30:10;;;;;;;;;;;;;;;;;;4997120;28;8417;-83
2022/06/22 00:32:36;;;;;;;;;;;;;;;;;;4998079;28;7035;-83
2022/06/22 00:35:20;;;;;;;;;;;;;;;;;;4997390;28;8519;-83
2022/06/22 00:37:45;;;;;;;;;;;;;;;;;;4998164;28;8723;-83
2022/06/22 00:40:15;;;;;;;;;;;;;;;;;;4998340;28;7104;-83
2022/06/22 00:42:49;;;;;;;;;;;;;;;;;;4998853;28;7031;-83
2022/06/22 00:45:23;;;;;;;;;;;;;;;;;;4997210;28;7596;-83
2022/06/22 00:48:01;;;;;;;;;;;;;;;;;;4996075;28;8407;-83
2022/06/22 00:50:38;;;;;;;;;;;;;;;;;;4996979;28;7045;-83
2022/06/22 00:53:14;;;;;;;;;;;;;;;;;;4996756;28;8572;-83
2022/06/22 00:55:48;;;;;;;;;;;;;;;;;;4997288;28;7061;-83
2022/06/22 00:58:23;;;;;;;;;;;;;;;;;;4996774;28;8492;-83
2022/06/22 01:00:55;;;;;;;;;;;;;;;;;;4997008;28;8454;-83
2022/06/22 01:03:26;;;;;;;;;;;;;;;;;;4996701;28;7041;-83
2022/06/22 01:05:57;;;;;;;;;;;;;;;;;;4997093;28;8376;-83
2022/06/22 01:08:48;;;;;;;;;;;;;;;;;;4996163;28;7061;-83
2022/06/22 01:14:03;;;;;;;;;;;;;;;;;;4997246;28;6981;-83
2022/06/22 01:16:34;;;;;;;;;;;;;;;;;;4996822;28;8286;-83
2022/06/22 01:19:10;;;;;;;;;;;;;;;;;;4996355;28;8445;-83
2022/06/22 01:21:44;;;;;;;;;;;;;;;;;;4995937;28;6824;-82
2022/06/22 01:24:13;;;;;;;;;;;;;;;;;;4996480;28;7189;-82
2022/06/22 01:26:58;;;;;;;;;;;;;;;;;;4996164;28;7133;-83
2022/06/22 01:29:25;;;;;;;;;;;;;;;;;;4996340;28;8853;-83
2022/06/22 01:31:51;;;;;;;;;;;;;;;;;;4995827;28;8402;-82
2022/06/22 01:34:19;;;;;;;;;;;;;;;;;;4996028;28;8456;-83
2022/06/22 01:36:46;;;;;;;;;;;;;;;;;;4995683;28;8499;-82
2022/06/22 01:39:13;;;;;;;;;;;;;;;;;;4995894;28;8727;-83
2022/06/22 01:41:53;;;;;;;;;;;;;;;;;;4996280;28;8412;-82
2022/06/22 01:44:30;;;;;;;;;;;;;;;;;;4995524;28;8408;-83
2022/06/22 01:47:11;;;;;;;;;;;;;;;;;;4995642;28;8297;-83
2022/06/22 01:49:43;;;;;;;;;;;;;;;;;;4996143;28;7166;-83
2022/06/22 01:52:18;;;;;;;;;;;;;;;;;;4995594;28;7139;-83
2022/06/22 01:54:52;;;;;;;;;;;;;;;;;;4996600;28;8583;-82
2022/06/22 01:57:26;;;;;;;;;;;;;;;;;;4996055;28;8521;-82
2022/06/22 02:00:03;;;;;;;;;;;;;;;;;;4995298;28;7201;-83
2022/06/22 02:02:34;;;;;;;;;;;;;;;;;;4995519;28;8417;-82
2022/06/22 02:05:09;;;;;;;;;;;;;;;;;;4995938;28;7502;-83
2022/06/22 02:07:48;;;;;;;;;;;;;;;;;;4994966;28;8358;-82
2022/06/22 02:10:23;;;;;;;;;;;;;;;;;;4995885;28;7031;-82
2022/06/22 02:12:58;;;;;;;;;;;;;;;;;;4996026;28;7229;-82
2022/06/22 02:15:29;;;;;;;;;;;;;;;;;;4995292;28;8394;-82
2022/06/22 02:17:57;;;;;;;;;;;;;;;;;;4995185;28;8390;-82
2022/06/22 02:20:29;;;;;;;;;;;;;;;;;;4994827;28;7243;-82
2022/06/22 02:22:58;;;;;;;;;;;;;;;;;;4995327;28;8733;-82
2022/06/22 02:25:27;;;;;;;;;;;;;;;;;;4994616;28;7061;-83
2022/06/22 02:27:54;;;;;;;;;;;;;;;;;;4995894;28;7051;-83
2022/06/22 02:30:20;;;;;;;;;;;;;;;;;;4995118;28;8409;-83
2022/06/22 02:32:46;;;;;;;;;;;;;;;;;;4994810;28;6988;-83
2022/06/22 02:35:14;;;;;;;;;;;;;;;;;;4958712;28;12256;-82
2022/06/22 02:37:42;;;;;;;;;;;;;;;;;;5007089;28;7051;-82
2022/06/22 02:40:12;;;;;;;;;;;;;;;;;;4994506;28;8284;-81
2022/06/22 02:45:23;;;;;;;;;;;;;;;;;;4996208;28;6799;-82
2022/06/22 02:47:48;;;;;;;;;;;;;;;;;;4994440;28;8824;-82
2022/06/22 02:50:23;;;;;;;;;;;;;;;;;;4994380;28;7123;-82
2022/06/22 02:52:52;;;;;;;;;;;;;;;;;;4994399;28;6949;-83
2022/06/22 02:55:21;;;;;;;;;;;;;;;;;;4994609;28;7392;-83
2022/06/22 02:57:47;;;;;;;;;;;;;;;;;;4994286;28;7420;-83
2022/06/22 03:00:14;;;;;;;;;;;;;;;;;;4994885;28;7247;-81
2022/06/22 03:02:41;;;;;;;;;;;;;;;;;;4994765;28;6958;-82
2022/06/22 03:05:07;;;;;;;;;;;;;;;;;;4994809;28;8313;-82
2022/06/22 03:07:37;;;;;;;;;;;;;;;;;;4994519;28;7153;-82
2022/06/22 03:10:04;;;;;;;;;;;;;;;;;;4994081;28;7134;-82
2022/06/22 03:12:29;;;;;;;;;;;;;;;;;;4993708;28;7185;-82
2022/06/22 03:15:00;;;;;;;;;;;;;;;;;;4994421;28;7154;-82
2022/06/22 03:17:38;;;;;;;;;;;;;;;;;;4994433;28;7023;-83
2022/06/22 03:20:04;;;;;;;;;;;;;;;;;;4994330;28;8387;-82
2022/06/22 03:22:35;;;;;;;;;;;;;;;;;;5010347;28;7651;-82
2022/06/22 03:25:19;;;;;;;;;;;;;;;;;;4994405;28;7239;-82
2022/06/22 03:27:51;;;;;;;;;;;;;;;;;;5010766;28;8408;-83
2022/06/22 03:30:23;;;;;;;;;;;;;;;;;;4994780;28;7003;-82
2022/06/22 03:33:01;;;;;;;;;;;;;;;;;;4994234;28;8548;-82
2022/06/22 03:35:34;;;;;;;;;;;;;;;;;;4993868;28;8948;-82
2022/06/22 03:38:05;;;;;;;;;;;;;;;;;;4994305;28;8406;-82
2022/06/22 03:40:34;;;;;;;;;;;;;;;;;;4993935;28;7203;-83
2022/06/22 03:43:06;;;;;;;;;;;;;;;;;;4994045;28;7148;-83
2022/06/22 03:45:36;;;;;;;;;;;;;;;;;;4994798;28;7163;-82
2022/06/22 03:48:08;;;;;;;;;;;;;;;;;;4994593;28;8470;-83
2022/06/22 03:50:46;;;;;;;;;;;;;;;;;;4994090;28;8925;-82
2022/06/22 03:53:11;;;;;;;;;;;;;;;;;;4994405;28;8703;-83
2022/06/22 03:55:41;;;;;;;;;;;;;;;;;;5010451;28;7132;-82
2022/06/22 03:58:09;;;;;;;;;;;;;;;;;;5010230;28;6999;-82
2022/06/22 04:00:38;;;;;;;;;;;;;;;;;;4994371;28;8413;-83
2022/06/22 04:03:06;;;;;;;;;;;;;;;;;;4994197;28;8709;-82
2022/06/22 04:05:39;;;;;;;;;;;;;;;;;;4994407;28;7255;-82
2022/06/22 04:08:05;;;;;;;;;;;;;;;;;;4993792;28;8518;-82
2022/06/22 04:10:49;;;;;;;;;;;;;;;;;;4994068;28;8555;-83
2022/06/22 04:13:31;;;;;;;;;;;;;;;;;;5010931;28;8314;-83
2022/06/22 04:16:05;;;;;;;;;;;;;;;;;;4994565;28;7008;-83
2022/06/22 04:18:42;;;;;;;;;;;;;;;;;;4994888;28;6820;-82
2022/06/22 04:21:11;;;;;;;;;;;;;;;;;;4993606;28;8507;-83
2022/06/22 04:23:45;;;;;;;;;;;;;;;;;;4995501;28;7049;-84
2022/06/22 04:26:20;;;;;;;;;;;;;;;;;;5013928;28;7061;-84
2022/06/22 04:28:48;;;;;;;;;;;;;;;;;;4997087;28;7045;-83
2022/06/22 04:31:18;;;;;;;;;;;;;;;;;;4996715;28;7048;-82
2022/06/22 04:33:47;;;;;;;;;;;;;;;;;;4997026;28;8416;-83
2022/06/22 04:36:17;;;;;;;;;;;;;;;;;;4996977;28;7157;-84
2022/06/22 04:38:48;;;;;;;;;;;;;;;;;;4996537;28;7173;-83
2022/06/22 04:41:26;;;;;;;;;;;;;;;;;;4994318;28;9383;-83
2022/06/22 04:43:53;;;;;;;;;;;;;;;;;;4993496;28;8654;-83
2022/06/22 04:46:44;;;;;;;;;;;;;;;;;;4977589;28;8408;-84
2022/06/22 04:49:21;;;;;;;;;;;;;;;;;;4976064;28;8495;-82
2022/06/22 04:51:51;;;;;;;;;;;;;;;;;;4977183;28;7200;-83
2022/06/22 04:54:22;;;;;;;;;;;;;;;;;;4977369;28;7045;-82
2022/06/22 04:56:51;;;;;;;;;;;;;;;;;;4977379;28;8415;-83
2022/06/22 04:59:17;;;;;;;;;;;;;;;;;;4976919;28;7333;-83
2022/06/22 05:01:51;;;;;;;;;;;;;;;;;;4977197;28;8499;-83
2022/06/22 05:04:21;;;;;;;;;;;;;;;;;;4993753;28;8420;-84
2022/06/22 05:07:13;;;;;;;;;;;;;;;;;;4992943;28;8779;-82
2022/06/22 05:09:40;;;;;;;;;;;;;;;;;;4975846;28;8822;-83
2022/06/22 05:12:14;;;;;;;;;;;;;;;;;;4977633;28;7179;-83
2022/06/22 05:14:41;;;;;;;;;;;;;;;;;;4976836;28;8669;-83
2022/06/22 05:17:15;;;;;;;;;;;;;;;;;;4976888;28;8420;-83
2022/06/22 05:20:02;;;;;;;;;;;;;;;;;;4976743;28;7192;-83
2022/06/22 05:22:27;;;;;;;;;;;;;;;;;;4977235;28;7289;-84
2022/06/22 05:24:58;;;;;;;;;;;;;;;;;;4999785;28;7130;-85
2022/06/22 05:27:27;;;;;;;;;;;;;;;;;;4992078;28;7017;-82
2022/06/22 05:30:07;;;;;;;;;;;;;;;;;;4992356;28;8742;-83
2022/06/22 05:32:44;;;;;;;;;;;;;;;;;;4992930;28;8461;-85
2022/06/22 05:35:14;;;;;;;;;;;;;;;;;;5003446;28;8538;-86
2022/06/22 05:37:44;;;;;;;;;;;;;;;;;;5012278;28;8311;-86
2022/06/22 05:40:12;;;;;;;;;;;;;;;;;;5012264;28;7406;-85
2022/06/22 05:42:37;;;;;;;;;;;;;;;;;;5011883;28;8283;-82
2022/06/22 05:45:11;;;;;;;;;;;;;;;;;;5011490;28;8483;-80
2022/06/22 05:47:37;;;;;;;;;;;;;;;;;;5012185;28;8368;-80
2022/06/22 05:50:10;;;;;;;;;;;;;;;;;;5011622;28;8396;-85
2022/06/22 05:52:35;;;;;;;;;;;;;;;;;;5008466;28;7153;-84
2022/06/22 05:55:06;;;;;;;;;;;;;;;;;;5011513;28;8411;-86
2022/06/22 05:57:39;;;;;;;;;;;;;;;;;;4995333;28;7163;-85
2022/06/22 06:00:28;;;;;;;;;;;;;;;;;;4995530;28;7246;-85
2022/06/22 06:02:54;;;;;;;;;;;;;;;;;;4995367;28;7285;-85
2022/06/22 06:05:28;;;;;;;;;;;;;;;;;;5011000;28;7046;-84
2022/06/22 06:08:00;;;;;;;;;;;;;;;;;;4995170;28;7073;-85
2022/06/22 06:10:34;;;;;;;;;;;;;;;;;;4994774;28;8573;-85
2022/06/22 06:13:02;;;;;;;;;;;;;;;;;;4994601;28;7041;-85
2022/06/22 06:15:35;;;;;;;;;;;;;;;;;;4995251;28;7176;-86
2022/06/22 06:18:02;;;;;;;;;;;;;;;;;;4995133;28;8687;-85
2022/06/22 06:20:33;;;;;;;;;;;;;;;;;;4994590;28;8296;-85
2022/06/22 06:23:06;;;;;;;;;;;;;;;;;;5011120;28;7171;-84
2022/06/22 06:28:29;;;;;;;;;;;;;;;;;;4995796;28;7052;-85
2022/06/22 06:31:01;;;;;;;;;;;;;;;;;;4994290;28;6913;-86
2022/06/22 06:33:26;;;;;;;;;;;;;;;;;;4994273;28;7430;-86
2022/06/22 06:35:56;;;;;;;;;;;;;;;;;;5006842;28;8591;-86
2022/06/22 06:38:31;;;;;;;;;;;;;;;;;;4994825;28;8737;-86
2022/06/22 06:41:02;;;;;;;;;;;;;;;;;;5010087;28;8307;-83
2022/06/22 06:43:27;;;;;;;;;;;;;;;;;;5010216;28;7201;-83
2022/06/22 06:45:53;;;;;;;;;;;;;;;;;;5009388;28;8292;-83
2022/06/22 06:48:23;;;;;;;;;;;;;;;;;;4989147;28;8681;-84
2022/06/22 06:50:52;;;;;;;;;;;;;;;;;;5009137;28;8446;-84
2022/06/22 06:53:24;;;;;;;;;;;;;;;;;;4979655;28;7461;-83
2022/06/22 06:56:12;;;;;;;;;;;;;;;;;;4993154;28;7372;-83
2022/06/22 06:58:56;;;;;;;;;;;;;;;;;;5009869;28;8669;-86
2022/06/22 07:01:24;;;;;;;;;;;;;;;;;;5010647;28;7175;-86
2022/06/22 07:03:53;;;;;;;;;;;;;;;;;;5010217;28;7202;-85
2022/06/22 07:06:19;;;;;;;;;;;;;;;;;;5011310;28;7231;-86
2022/06/22 07:08:48;;;;;;;;;;;;;;;;;;5010212;28;8515;-86
2022/06/22 07:11:31;;;;;;;;;;;;;;;;;;5010268;28;8397;-86
2022/06/22 07:14:13;;;;;;;;;;;;;;;;;;5010214;28;7062;-87
2022/06/22 07:16:40;;;;;;;;;;;;;;;;;;5010506;28;7048;-87
2022/06/22 07:19:17;;;;;;;;;;;;;;;;;;5010272;28;7057;-87
2022/06/22 07:21:49;;;;;;;;;;;;;;;;;;5010619;28;8822;-87
2022/06/22 07:24:17;;;;;;;;;;;;;;;;;;5010333;28;8413;-87
2022/06/22 07:26:49;;;;;;;;;;;;;;;;;;4993863;28;8414;-88
2022/06/22 07:29:17;;;;;;;;;;;;;;;;;;4993936;28;8578;-86
2022/06/22 07:31:49;;;;;;;;;;;;;;;;;;4993299;28;8390;-86
2022/06/22 07:34:23;;;;;;;;;;;;;;;;;;5009625;28;8868;-86
2022/06/22 07:36:56;;;;;;;;;;;;;;;;;;5009983;28;6989;-86
2022/06/22 07:39:46;;;;;;;;;;;;;;;;;;5009216;28;7068;-86
2022/06/22 07:42:12;;;;;;;;;;;;;;;;;;5009062;28;8284;-85
2022/06/22 07:44:38;;;;;;;;;;;;;;;;;;5008697;28;8582;-87
2022/06/22 07:47:12;;;;;;;;;;;;;;;;;;5008771;28;7120;-86
2022/06/22 07:49:43;;;;;;;;;;;;;;;;;;5008318;28;7161;-86
2022/06/22 07:52:13;;;;;;;;;;;;;;;;;;5008598;28;7112;-86
2022/06/22 07:54:41;;;;;;;;;;;;;;;;;;5008745;28;8940;-85
2022/06/22 07:57:12;;;;;;;;;;;;;;;;;;5003710;28;7339;-86
2022/06/22 07:59:47;;;;;;;;;;;;;;;;;;5013092;28;6847;-86
2022/06/22 08:02:18;;;;;;;;;;;;;;;;;;5011003;28;7011;-86
2022/06/22 08:04:59;;;;;;;;;;;;;;;;;;4995647;28;7099;-87
2022/06/22 08:07:27;;;;;;;;;;;;;;;;;;5012981;28;7166;-87
2022/06/22 08:10:10;;;;;;;;;;;;;;;;;;5012492;28;8391;-85
2022/06/22 08:12:59;;;;;;;;;;;;;;;;;;5012582;28;8746;-84
2022/06/22 08:15:29;;;;;;;;;;;;;;;;;;5007459;28;8353;-84
2022/06/22 08:17:59;;;;;;;;;;;;;;;;;;5012483;28;7182;-84
2022/06/22 08:20:29;;;;;;;;;;;;;;;;;;5013043;28;7111;-84
2022/06/22 08:22:58;;;;;;;;;;;;;;;;;;5005297;28;6834;-84
2022/06/22 08:25:24;;;;;;;;;;;;;;;;;;4997174;28;7428;-84
2022/06/22 08:27:51;;;;;;;;;;;;;;;;;;4997622;28;8421;-84
2022/06/22 08:30:17;;;;;;;;;;;;;;;;;;4997591;28;7250;-84
2022/06/22 08:32:52;;;;;;;;;;;;;;;;;;4996863;28;7418;-84
2022/06/22 08:35:25;;;;;;;;;;;;;;;;;;4996876;28;8463;-84
2022/06/22 08:38:14;;;;;;;;;;;;;;;;;;4997429;28;8597;-84
2022/06/22 08:40:55;;;;;;;;;;;;;;;;;;5007437;28;8301;-84
2022/06/22 08:43:21;;;;;;;;;;;;;;;;;;4997410;28;7423;-84
2022/06/22 08:46:06;;;;;;;;;;;;;;;;;;5012919;28;7122;-84
2022/06/22 08:48:40;;;;;;;;;;;;;;;;;;4996693;28;8451;-84
2022/06/22 08:51:15;;;;;;;;;;;;;;;;;;5013719;28;8425;-87
2022/06/22 08:53:58;;;;;;;;;;;;;;;;;;5012888;28;7194;-86
2022/06/22 08:56:32;;;;;;;;;;;;;;;;;;4996610;28;8307;-88
2022/06/22 08:59:04;;;;;;;;;;;;;;;;;;4997139;28;7053;-87
2022/06/22 09:01:54;;;;;;;;;;;;;;;;;;5012664;28;8382;-85
2022/06/22 09:04:23;;;;;;;;;;;;;;;;;;4996838;28;8458;-86
2022/06/22 09:06:48;;;;;;;;;;;;;;;;;;5013111;28;7055;-86
2022/06/22 09:09:41;;;;;;;;;;;;;;;;;;5012161;28;8378;-85
2022/06/22 09:12:19;;;;;;;;;;;;;;;;;;4997894;28;8841;-86
2022/06/22 09:14:54;;;;;;;;;;;;;;;;;;5012443;28;7059;-88
2022/06/22 09:17:31;;;;;;;;;;;;;;;;;;5012753;28;8319;-87
2022/06/22 09:20:16;;;;;;;;;;;;;;;;;;4993540;28;7039;-88
2022/06/22 09:22:54;;;;;;;;;;;;;;;;;;5012390;28;7077;-88
2022/06/22 09:25:20;;;;;;;;;;;;;;;;;;4996062;28;7087;-87
2022/06/22 09:28:08;;;;;;;;;;;;;;;;;;5011827;28;7261;-87
2022/06/22 09:30:40;;;;;;;;;;;;;;;;;;5006506;28;8470;-86
2022/06/22 09:33:09;;;;;;;;;;;;;;;;;;5012124;28;7041;-87
2022/06/22 09:35:53;;;;;;;;;;;;;;;;;;5007736;28;7172;-87
2022/06/22 09:38:31;;;;;;;;;;;;;;;;;;5009917;28;8501;-85
2022/06/22 09:40:56;;;;;;;;;;;;;;;;;;4992882;28;8481;-82
2022/06/22 09:43:43;;;;;;;;;;;;;;;;;;5010214;28;8415;-83
2022/06/22 09:46:27;;;;;;;;;;;;;;;;;;5000720;28;8638;-83
2022/06/22 09:48:55;;;;;;;;;;;;;;;;;;4994533;28;8474;-83
2022/06/22 09:51:36;;;;;;;;;;;;;;;;;;4993464;28;8735;-84
2022/06/22 09:57:04;;;;;;;;;;;;;;;;;;4996839;28;7056;-83
2022/06/22 09:59:44;;;;;;;;;;;;;;;;;;4995339;28;7277;-82
2022/06/22 10:02:45;;;;;;;;;;;;;;;;;;5010647;28;8758;-84
2022/06/22 10:05:22;;;;;;;;;;;;;;;;;;4972942;28;8768;-84
2022/06/22 10:07:57;;;;;;;;;;;;;;;;;;5005037;28;8493;-83
2022/06/22 10:10:34;;;;;;;;;;;;;;;;;;5010712;28;7214;-83
2022/06/22 10:13:03;;;;;;;;;;;;;;;;;;5009472;28;7080;-83
2022/06/22 10:15:47;;;;;;;;;;;;;;;;;;4993377;28;8898;-83
2022/06/22 10:18:31;;;;;;;;;;;;;;;;;;4993764;28;7290;-82
2022/06/22 10:21:15;;;;;;;;;;;;;;;;;;5009523;28;8873;-84
2022/06/22 10:24:00;;;;;;;;;;;;;;;;;;4994598;28;8571;-82
2022/06/22 10:26:28;;;;;;;;;;;;;;;;;;4993190;28;8770;-85
2022/06/22 10:29:12;;;;;;;;;;;;;;;;;;4994047;28;7102;-83
2022/06/22 10:31:56;;;;;;;;;;;;;;;;;;4993881;28;8561;-84
2022/06/22 10:34:38;;;;;;;;;;;;;;;;;;4993661;28;8749;-84
2022/06/22 10:37:19;;;;;;;;;;;;;;;;;;5009602;28;8434;-82
2022/06/22 10:40:02;;;;;;;;;;;;;;;;;;4993362;28;8783;-83
2022/06/22 10:45:21;;;;;;;;;;;;;;;;;;4994677;28;6793;-82
2022/06/22 10:48:16;;;;;;;;;;;;;;;;;;4993072;28;8744;-83
2022/06/22 10:50:51;;;;;;;;;;;;;;;;;;5008518;28;7212;-83
2022/06/22 10:53:38;;;;;;;;;;;;;;;;;;4993754;28;8972;-84
2022/06/22 10:56:15;;;;;;;;;;;;;;;;;;4992924;28;7077;-84
2022/06/22 10:58:40;;;;;;;;;;;;;;;;;;4992661;28;8422;-86
2022/06/22 11:01:19;;;;;;;;;;;;;;;;;;4992542;28;8720;-86
2022/06/22 11:03:51;;;;;;;;;;;;;;;;;;4992503;28;7177;-88
2022/06/22 11:06:38;;;;;;;;;;;;;;;;;;4992858;28;7188;-87
2022/06/22 11:09:15;;;;;;;;;;;;;;;;;;4992145;28;8505;-87
2022/06/22 11:11:41;;;;;;;;;;;;;;;;;;4992122;28;7082;-87
2022/06/22 11:14:06;;;;;;;;;;;;;;;;;;4992933;28;7158;-88
2022/06/22 11:16:34;;;;;;;;;;;;;;;;;;4993424;28;7041;-87
2022/06/22 11:19:18;;;;;;;;;;;;;;;;;;4992928;28;9099;-87
2022/06/22 11:22:03;;;;;;;;;;;;;;;;;;4993585;28;7050;-88
2022/06/22 11:24:47;;;;;;;;;;;;;;;;;;4993213;28;8770;-87
2022/06/22 11:33:11;;;;;;;;;;;;;;;;;;4996157;28;6780;-87
2022/06/22 11:35:44;;;;;;;;;;;;;;;;;;4996778;28;7176;-87
2022/06/22 11:38:23;;;;;;;;;;;;;;;;;;4997084;28;8552;-88
2022/06/22 11:41:07;;;;;;;;;;;;;;;;;;4996553;28;7107;-88
2022/06/22 11:43:44;;;;;;;;;;;;;;;;;;4991597;28;8982;-87
2022/06/22 11:46:30;;;;;;;;;;;;;;;;;;5009151;28;7175;-87
2022/06/22 11:48:56;;;;;;;;;;;;;;;;;;4992888;28;7174;-86
2022/06/22 11:51:26;;;;;;;;;;;;;;;;;;4996584;28;7081;-87
2022/06/22 11:53:58;;;;;;;;;;;;;;;;;;4996968;28;7072;-87
2022/06/22 11:56:38;;;;;;;;;;;;;;;;;;4996900;28;7428;-87
2022/06/22 11:59:18;;;;;;;;;;;;;;;;;;4997092;28;7071;-88
2022/06/22 12:01:50;;;;;;;;;;;;;;;;;;4996557;28;7178;-87
2022/06/22 12:04:42;;;;;;;;;;;;;;;;;;4996616;28;8460;-88
2022/06/22 12:07:16;;;;;;;;;;;;;;;;;;4995781;28;7107;-87
2022/06/22 12:09:55;;;;;;;;;;;;;;;;;;4997115;28;8437;-88
2022/06/22 12:12:40;;;;;;;;;;;;;;;;;;4995848;28;8484;-87
2022/06/22 12:15:22;;;;;;;;;;;;;;;;;;4996427;28;7282;-87
2022/06/22 12:18:02;;;;;;;;;;;;;;;;;;4996582;28;8445;-87
2022/06/22 12:20:27;;;;;;;;;;;;;;;;;;4997150;28;8373;-88
2022/06/22 12:23:11;;;;;;;;;;;;;;;;;;4996078;28;9046;-87
2022/06/22 12:25:40;;;;;;;;;;;;;;;;;;4996107;28;8481;-87
2022/06/22 12:28:11;;;;;;;;;;;;;;;;;;4996313;28;7194;-86
2022/06/22 12:30:46;;;;;;;;;;;;;;;;;;4996706;28;8493;-87
2022/06/22 12:33:18;;;;;;;;;;;;;;;;;;4995281;28;8440;-86
2022/06/22 12:35:54;;;;;;;;;;;;;;;;;;4996213;28;8468;-88
2022/06/22 12:38:23;;;;;;;;;;;;;;;;;;4996242;28;7196;-87
2022/06/22 12:40:59;;;;;;;;;;;;;;;;;;4994715;28;8447;-88
2022/06/22 12:43:34;;;;;;;;;;;;;;;;;;5011809;28;8493;-86
2022/06/22 12:46:05;;;;;;;;;;;;;;;;;;5012178;28;8481;-87
2022/06/22 12:48:45;;;;;;;;;;;;;;;;;;4998318;28;8419;-87
2022/06/22 12:51:18;;;;;;;;;;;;;;;;;;5012806;28;8420;-87
2022/06/22 12:54:02;;;;;;;;;;;;;;;;;;5013598;28;8966;-88
2022/06/22 12:56:39;;;;;;;;;;;;;;;;;;4995412;28;8447;-87
2022/06/22 12:59:20;;;;;;;;;;;;;;;;;;5011649;28;8336;-88
2022/06/22 13:01:45;;;;;;;;;;;;;;;;;;5010943;28;8497;-87
2022/06/22 13:04:17;;;;;;;;;;;;;;;;;;5011206;28;8528;-88
2022/06/22 13:06:48;;;;;;;;;;;;;;;;;;5012554;28;7205;-87
2022/06/22 13:09:15;;;;;;;;;;;;;;;;;;5011572;28;7289;-87
2022/06/22 13:11:43;;;;;;;;;;;;;;;;;;5012100;28;7195;-88
2022/06/22 13:14:11;;;;;;;;;;;;;;;;;;5011782;28;7201;-88
2022/06/22 13:16:57;;;;;;;;;;;;;;;;;;4995027;28;7448;-87
2022/06/22 13:19:38;;;;;;;;;;;;;;;;;;5011937;28;7070;-88
2022/06/22 13:22:11;;;;;;;;;;;;;;;;;;4994822;28;7119;-87
2022/06/22 13:24:50;;;;;;;;;;;;;;;;;;5010108;28;8366;-87
2022/06/22 13:27:35;;;;;;;;;;;;;;;;;;5012194;28;7404;-88
2022/06/22 13:30:13;;;;;;;;;;;;;;;;;;5012309;28;8484;-88
2022/06/22 13:32:39;;;;;;;;;;;;;;;;;;5011996;28;8625;-89
2022/06/22 13:35:17;;;;;;;;;;;;;;;;;;5012231;28;8554;-88
2022/06/22 13:38:05;;;;;;;;;;;;;;;;;;5011096;28;8630;-88
2022/06/22 13:40:43;;;;;;;;;;;;;;;;;;5010682;28;8512;-88
2022/06/22 13:43:12;;;;;;;;;;;;;;;;;;5010670;28;8537;-88
2022/06/22 13:45:43;;;;;;;;;;;;;;;;;;4994190;28;8676;-88
2022/06/22 13:48:16;;;;;;;;;;;;;;;;;;4994501;28;7018;-87
2022/06/22 13:51:13;;;;;;;;;;;;;;;;;;4994474;28;7093;-88
2022/06/22 13:53:47;;;;;;;;;;;;;;;;;;4994704;28;9163;-81
2022/06/22 13:56:22;;;;;;;;;;;;;;;;;;4994223;28;9385;-88
2022/06/22 13:58:50;;;;;;;;;;;;;;;;;;4995779;28;6858;-88
2022/06/22 14:01:23;;;;;;;;;;;;;;;;;;5011429;28;8441;-88
2022/06/22 14:04:05;;;;;;;;;;;;;;;;;;5013764;28;8327;-88
2022/06/22 14:06:37;;;;;;;;;;;;;;;;;;5012344;28;8653;-86
2022/06/22 14:09:14;;;;;;;;;;;;;;;;;;5011951;28;8521;-87
2022/06/22 14:12:00;;;;;;;;;;;;;;;;;;5012331;28;7095;-87
2022/06/22 14:14:31;;;;;;;;;;;;;;;;;;5010936;28;8765;-88
2022/06/22 14:17:05;;;;;;;;;;;;;;;;;;5012611;28;8448;-86
2022/06/22 14:19:37;;;;;;;;;;;;;;;;;;4993234;28;8833;-87
2022/06/22 14:22:05;;;;;;;;;;;;;;;;;;4995801;28;8579;-87
2022/06/22 14:24:43;;;;;;;;;;;;;;;;;;5006131;28;8543;-88
2022/06/22 14:27:27;;;;;;;;;;;;;;;;;;4975204;28;8750;-87
2022/06/22 14:30:05;;;;;;;;;;;;;;;;;;4975646;28;7198;-88
2022/06/22 14:32:48;;;;;;;;;;;;;;;;;;4975565;28;8747;-88
2022/06/22 14:35:20;;;;;;;;;;;;;;;;;;4975852;28;8568;-88
2022/06/22 14:37:57;;;;;;;;;;;;;;;;;;4975395;28;9588;-91
2022/06/22 14:40:36;;;;;;;;;;;;;;;;;;4975226;28;8553;-88
2022/06/22 14:43:16;;;;;;;;;;;;;;;;;;4991651;28;8332;-90
2022/06/22 14:45:45;;;;;;;;;;;;;;;;;;4991532;28;8335;-88
2022/06/22 14:48:20;;;;;;;;;;;;;;;;;;4991807;28;8644;-89
2022/06/22 14:50:49;;;;;;;;;;;;;;;;;;4991903;28;8806;-90
2022/06/22 14:53:14;;;;;;;;;;;;;;;;;;4975121;28;8776;-88
2022/06/22 14:55:46;;;;;;;;;;;;;;;;;;4975109;28;7238;-87
2022/06/22 14:58:29;;;;;;;;;;;;;;;;;;4975079;28;7201;-89
2022/06/22 15:00:56;;;;;;;;;;;;;;;;;;4975173;28;7127;-89
2022/06/22 15:03:34;;;;;;;;;;;;;;;;;;4974996;28;7202;-87
2022/06/22 15:06:02;;;;;;;;;;;;;;;;;;4975215;28;6968;-89
2022/06/22 15:08:48;;;;;;;;;;;;;;;;;;4974080;28;8414;-88
2022/06/22 15:14:14;;;;;;;;;;;;;;;;;;4990739;28;6834;-88
2022/06/22 15:16:44;;;;;;;;;;;;;;;;;;5009972;28;7173;-89
2022/06/22 15:19:31;;;;;;;;;;;;;;;;;;5008012;28;8434;-89
2022/06/22 15:22:06;;;;;;;;;;;;;;;;;;5008959;28;8467;-89
2022/06/22 15:24:54;;;;;;;;;;;;;;;;;;5008556;28;9072;-90
2022/06/22 15:27:36;;;;;;;;;;;;;;;;;;5002147;28;7070;-89
2022/06/22 15:30:15;;;;;;;;;;;;;;;;;;5008737;28;7469;-89
2022/06/22 15:33:06;;;;;;;;;;;;;;;;;;5009317;28;9393;-90
2022/06/22 15:35:35;;;;;;;;;;;;;;;;;;5006442;28;7456;-89
2022/06/22 15:38:20;;;;;;;;;;;;;;;;;;4992232;28;8678;-90
2022/06/22 15:40:53;;;;;;;;;;;;;;;;;;5008547;28;7087;-89
2022/06/22 15:43:25;;;;;;;;;;;;;;;;;;5008775;28;8776;-89
2022/06/22 15:46:03;;;;;;;;;;;;;;;;;;4992696;28;7277;-89
2022/06/22 15:48:34;;;;;;;;;;;;;;;;;;5009357;28;7183;-89
2022/06/22 15:51:06;;;;;;;;;;;;;;;;;;5009264;28;7257;-89
2022/06/22 15:53:42;;;;;;;;;;;;;;;;;;5008959;28;8483;-88
2022/06/22 15:56:07;;;;;;;;;;;;;;;;;;5008956;28;8055;-89
2022/06/22 15:58:40;;;;;;;;;;;;;;;;;;4992924;28;8391;-89
2022/06/22 16:01:27;;;;;;;;;;;;;;;;;;5009398;28;7258;-89
2022/06/22 16:03:55;;;;;;;;;;;;;;;;;;5008327;28;8519;-88
2022/06/22 16:06:28;;;;;;;;;;;;;;;;;;4992504;28;8374;-89
2022/06/22 16:08:57;;;;;;;;;;;;;;;;;;5009046;28;8608;-90
2022/06/22 16:14:37;;;;;;;;;;;;;;;;;;4995533;28;7048;-89
2022/06/22 16:17:14;;;;;;;;;;;;;;;;;;5010596;28;8585;-89
2022/06/22 16:19:46;;;;;;;;;;;;;;;;;;5013192;28;7082;-88
2022/06/22 16:22:23;;;;;;;;;;;;;;;;;;4997143;28;7217;-88
2022/06/22 16:25:00;;;;;;;;;;;;;;;;;;5013746;28;8445;-88
2022/06/22 16:27:32;;;;;;;;;;;;;;;;;;5013418;28;7162;-89
2022/06/22 16:30:01;;;;;;;;;;;;;;;;;;5013551;28;8452;-89
2022/06/22 16:32:29;;;;;;;;;;;;;;;;;;5013064;28;7471;-89
2022/06/22 16:34:58;;;;;;;;;;;;;;;;;;4996746;28;7092;-88
2022/06/22 16:37:26;;;;;;;;;;;;;;;;;;4997103;28;8737;-89
2022/06/22 16:40:10;;;;;;;;;;;;;;;;;;4995763;28;8564;-88
2022/06/22 16:43:15;;;;;;;;;;;;;;;;;;4996104;28;8618;-88
2022/06/22 16:46:07;;;;;;;;;;;;;;;;;;4975118;28;8435;-87
2022/06/22 16:48:38;;;;;;;;;;;;;;;;;;4958553;28;8625;-87
2022/06/22 16:51:09;;;;;;;;;;;;;;;;;;4976352;28;8436;-88
2022/06/22 16:53:47;;;;;;;;;;;;;;;;;;4960288;28;8554;-87
2022/06/22 16:56:27;;;;;;;;;;;;;;;;;;4960018;28;8616;-87
2022/06/22 16:59:00;;;;;;;;;;;;;;;;;;4960295;28;7086;-88
2022/06/22 17:01:31;;;;;;;;;;;;;;;;;;4959317;28;8784;-87
2022/06/22 17:04:18;;;;;;;;;;;;;;;;;;4957675;28;9080;-87
2022/06/22 17:06:52;;;;;;;;;;;;;;;;;;4970591;28;8637;-88
2022/06/22 17:09:42;;;;;;;;;;;;;;;;;;4976045;28;8601;-88
2022/06/22 17:12:10;;;;;;;;;;;;;;;;;;4976069;28;9004;-87
2022/06/22 17:14:38;;;;;;;;;;;;;;;;;;4975666;28;8724;-87
2022/06/22 17:17:06;;;;;;;;;;;;;;;;;;4980342;28;8363;-87
2022/06/22 17:19:46;;;;;;;;;;;;;;;;;;4998508;28;8365;-88
2022/06/22 17:22:23;;;;;;;;;;;;;;;;;;4995910;28;8520;-87
2022/06/22 17:25:07;;;;;;;;;;;;;;;;;;4996362;28;8460;-87
2022/06/22 17:27:40;;;;;;;;;;;;;;;;;;5012340;28;8965;-87
2022/06/22 17:30:09;;;;;;;;;;;;;;;;;;4995286;28;9135;-87
2022/06/22 17:32:44;;;;;;;;;;;;;;;;;;4996689;28;8337;-87
2022/06/22 17:35:28;;;;;;;;;;;;;;;;;;4995881;28;8428;-88
2022/06/22 17:38:12;;;;;;;;;;;;;;;;;;5012404;28;7102;-87
2022/06/22 17:40:56;;;;;;;;;;;;;;;;;;5012391;28;8760;-87
2022/06/22 17:43:32;;;;;;;;;;;;;;;;;;5011941;28;9025;-87
2022/06/22 17:46:01;;;;;;;;;;;;;;;;;;4995596;28;7264;-88
2022/06/22 17:48:33;;;;;;;;;;;;;;;;;;5011838;28;8349;-87
2022/06/22 17:51:04;;;;;;;;;;;;;;;;;;4995755;28;8525;-86
2022/06/22 17:53:32;;;;;;;;;;;;;;;;;;4995165;28;8436;-87
2022/06/22 17:56:02;;;;;;;;;;;;;;;;;;4994575;28;7176;-87
2022/06/22 17:58:34;;;;;;;;;;;;;;;;;;4995581;28;8529;-88
2022/06/22 18:01:01;;;;;;;;;;;;;;;;;;4995685;28;8537;-87
2022/06/22 18:03:33;;;;;;;;;;;;;;;;;;4995569;28;8825;-87
2022/06/22 18:06:05;;;;;;;;;;;;;;;;;;4995244;28;8693;-87
2022/06/22 18:08:43;;;;;;;;;;;;;;;;;;4995085;28;8754;-87
2022/06/22 18:11:14;;;;;;;;;;;;;;;;;;5011059;28;7314;-87
2022/06/22 18:14:02;;;;;;;;;;;;;;;;;;5011232;28;7458;-88
2022/06/22 18:16:36;;;;;;;;;;;;;;;;;;4988590;28;8876;-87
2022/06/22 18:19:04;;;;;;;;;;;;;;;;;;4994819;28;8587;-87